EDT,Max TemperatureF,Mean TemperatureF,Min TemperatureF,Max Dew PointF,MeanDew PointF,Min DewpointF,Max Humidity, Mean Humidity, Min Humidity, Max Sea Level PressureIn, Mean Sea Level PressureIn, Min Sea Level PressureIn, Max VisibilityMiles, Mean VisibilityMiles, Min VisibilityMiles, Max Wind SpeedMPH, Mean Wind SpeedMPH, Max Gust SpeedMPH,PrecipitationIn, CloudCover, Events, WindDirDegrees
2013-3-1,30,28,26,25,20,19,82,75,69,30.11,30.05,29.96,10,10,10,16,12,25,0.00,8,,360
2013-3-2,28,26,24,21,19,14,81,72,64,30.08,30.06,30.02,10,10,5,13,9,22,0.00,8,Snow,344
2013-3-3,30,26,21,18,15,12,86,68,51,30.06,30.04,30.00,10,10,7,14,7,20,0.00,6,Snow,306
2013-3-4,37,27,17,21,16,12,88,67,36,30.17,30.12,30.09,10,10,10,7,3,,0.00,0,,318
2013-3-5,35,28,21,25,22,19,93,78,64,30.16,30.00,29.86,10,10,10,15,8,22,0.00,1,,72
2013-3-6,43,36,28,30,28,23,89,75,58,30.22,30.05,29.84,10,10,10,14,9,21,0.00,4,,22
2013-3-7,37,34,30,33,28,20,92,78,59,30.41,30.31,30.20,10,10,4,9,4,,0.00,8,Snow,343
2013-3-8,44,34,25,30,25,20,96,72,53,30.51,30.46,30.41,10,10,9,8,3,,0.00,1,,41
2013-3-9,43,34,26,34,30,26,100,84,58,30.43,30.29,30.07,10,9,5,12,4,18,0.00,2,,135
2013-3-10,63,50,37,35,34,32,89,54,34,30.06,29.94,29.82,10,10,10,21,7,29,0.00,2,Rain,179
2013-3-11,57,48,37,50,46,33,100,88,44,29.83,29.64,29.49,10,9,2,25,15,34,0.21,8,Rain,202
2013-3-12,37,34,30,35,31,27,93,84,70,29.93,29.85,29.71,10,10,6,17,13,25,0.00,8,Snow,248
2013-3-13,34,30,26,31,24,15,100,80,50,30.19,29.96,29.84,10,8,1,17,10,30,0.01,6,Snow,279
2013-3-14,42,32,23,26,18,13,81,59,40,30.26,30.19,30.09,10,10,10,13,7,18,0.00,0,,292
2013-3-15,39,36,30,37,34,25,100,94,72,30.08,29.92,29.87,10,7,3,14,7,17,0.02,7,Rain-Snow,285
2013-3-16,32,29,26,32,28,25,100,94,84,30.05,29.85,29.78,10,5,1,13,8,18,0.10,8,Snow,52
2013-3-17,32,26,23,29,23,16,100,87,71,30.29,30.21,30.06,10,10,10,14,8,22,0.00,3,,22
2013-3-18,36,30,24,34,27,18,100,89,74,30.20,29.75,29.54,10,6,2,23,13,31,0.04,7,Rain,115
2013-3-19,57,40,24,32,19,13,87,68,39,29.95,29.77,29.61,10,9,2,23,14,33,0.00,8,Snow,259
2013-3-20,30,24,19,16,12,8,66,58,47,29.95,29.93,29.89,10,10,9,16,10,24,0.00,4,Snow,282
2013-3-21,32,24,17,24,17,9,81,71,61,29.93,29.88,29.84,10,10,5,16,10,24,0.00,7,Snow,288
2013-3-22,39,32,26,24,18,15,76,59,45,30.04,29.98,29.92,10,10,10,14,9,20,0.00,6,,301
2013-3-23,41,31,23,24,22,19,85,68,50,30.11,30.08,30.03,10,10,9,9,2,,0.00,3,,40
2013-3-24,37,31,25,26,23,17,92,74,48,30.05,29.88,29.65,10,10,10,16,7,26,0.00,3,,44
2013-3-25,39,34,30,28,27,23,93,77,62,29.90,29.66,29.57,10,7,1,16,13,28,0.03,8,Snow,27
2013-3-26,45,40,35,29,27,23,76,64,43,30.11,30.01,29.91,10,10,10,14,8,22,0.00,8,,318
2013-3-27,48,38,30,28,24,21,76,55,37,30.19,30.14,30.10,10,10,10,15,10,22,0.00,6,,303
2013-3-28,52,42,34,27,25,22,67,53,35,30.27,30.23,30.19,10,10,10,12,7,,0.00,7,,313
2013-3-29,54,43,33,26,21,17,64,45,25,30.29,30.25,30.19,10,10,10,10,4,,0.00,1,,337
2013-3-30,55,42,30,28,24,16,79,50,22,30.23,30.13,29.96,10,10,10,13,3,20,0.00,0,,186
2013-3-31,60,48,39,43,34,28,83,61,32,29.94,29.72,29.61,10,9,6,17,8,22,0.04,6,Rain,243